createdAt,value
2018-12-11T00:00:13.242Z,100914.48
2018-12-11T00:02:42.294Z,100908.36
2018-12-11T00:05:11.513Z,100915.73
2018-12-11T00:07:40.308Z,100916.56
2018-12-11T00:10:09.098Z,100930.06
2018-12-11T00:12:37.861Z,100930.02
2018-12-11T00:15:07.024Z,100934.66
2018-12-11T00:17:35.864Z,100936.74
2018-12-11T00:20:05.615Z,100942.03
2018-12-11T00:22:34.338Z,100943.72
2018-12-11T00:25:03.514Z,100948.77
2018-12-11T00:27:32.404Z,100958.52
2018-12-11T00:30:01.445Z,100962.03
2018-12-11T00:32:30.519Z,100964.20
2018-12-11T00:34:59.429Z,100973.83
2018-12-11T00:37:28.799Z,100974.22
2018-12-11T00:39:58.241Z,100981.82
2018-12-11T00:42:27.044Z,100993.48
2018-12-11T00:44:55.849Z,100996.97
2018-12-11T00:47:24.780Z,100991.77
2018-12-11T00:49:53.888Z,101001.69
2018-12-11T00:52:22.934Z,101002.70
2018-12-11T00:54:51.969Z,101011.82
2018-12-11T00:57:21.055Z,101018.33
2018-12-11T00:59:50.456Z,101014.40
2018-12-11T01:02:19.371Z,101017.83
2018-12-11T01:04:48.756Z,101019.44
2018-12-11T01:07:17.841Z,101022.98
2018-12-11T01:09:46.819Z,101028.13
2018-12-11T01:12:16.029Z,101037.72
2018-12-11T01:14:45.155Z,101039.91
2018-12-11T01:17:14.688Z,101034.14
2018-12-11T01:19:43.523Z,101035.03
2018-12-11T01:22:12.704Z,101053.73
2018-12-11T01:24:41.511Z,101055.39
2018-12-11T01:27:10.271Z,101061.07
2018-12-11T01:29:39.401Z,101076.70
2018-12-11T01:32:08.701Z,101080.19
2018-12-11T01:34:37.992Z,101086.72
2018-12-11T01:37:06.874Z,101089.89
2018-12-11T01:39:36.081Z,101094.30
2018-12-11T01:42:05.464Z,101094.23
2018-12-11T01:44:34.633Z,101092.50
2018-12-11T01:47:03.780Z,101105.02
2018-12-11T01:49:32.661Z,101107.11
2018-12-11T01:52:01.645Z,101110.75
2018-12-11T01:54:30.997Z,101110.73
2018-12-11T01:57:00.258Z,101107.11
2018-12-11T01:59:29.495Z,101124.48
2018-12-11T02:01:58.858Z,101128.77
2018-12-11T02:04:28.134Z,101139.72
2018-12-11T02:06:57.319Z,101135.91
2018-12-11T02:09:26.493Z,101140.20
2018-12-11T02:11:55.598Z,101147.92
2018-12-11T02:14:24.625Z,101153.09
2018-12-11T02:16:53.571Z,101159.10
2018-12-11T02:19:22.704Z,101163.45
2018-12-11T02:21:52.006Z,101173.95
2018-12-11T02:24:21.110Z,101173.04
2018-12-11T02:26:50.129Z,101179.52
2018-12-11T02:29:19.507Z,101185.23
2018-12-11T02:31:48.758Z,101186.53
2018-12-11T02:34:18.002Z,101193.23
2018-12-11T02:36:47.201Z,101189.42
2018-12-11T02:39:16.735Z,101197.27
2018-12-11T02:41:45.775Z,101201.88
2018-12-11T02:44:15.017Z,101206.70
2018-12-11T02:46:44.219Z,101205.78
2018-12-11T02:49:13.291Z,101201.97
2018-12-11T02:51:42.419Z,101210.19
2018-12-11T02:54:11.209Z,101207.47
2018-12-11T02:56:40.494Z,101209.27
2018-12-11T02:59:09.454Z,101223.18
2018-12-11T03:01:38.579Z,101221.40
2018-12-11T03:04:07.990Z,101220.95
2018-12-11T03:06:37.252Z,101221.84
2018-12-11T03:09:08.124Z,101223.94
2018-12-11T03:11:37.287Z,101230.86
2018-12-11T03:14:06.431Z,101239.47
2018-12-11T03:16:35.563Z,101244.67
2018-12-11T03:19:05.084Z,101251.18
2018-12-11T03:21:34.238Z,101252.64
2018-12-11T03:24:03.839Z,101248.74
2018-12-11T03:26:33.141Z,101240.99
2018-12-11T03:29:02.450Z,101255.34
2018-12-11T03:31:31.494Z,101259.25
2018-12-11T03:34:00.721Z,101109.66
2018-12-11T03:36:29.923Z,101268.56
2018-12-11T03:38:59.080Z,101264.66
2018-12-11T03:41:28.218Z,101264.17
2018-12-11T03:43:57.566Z,101276.21
2018-12-11T03:46:26.724Z,101273.67
2018-12-11T03:48:55.850Z,101278.02
2018-12-11T03:51:24.917Z,101284.91
2018-12-11T03:53:53.881Z,101283.16
2018-12-11T03:56:22.788Z,101282.21
2018-12-11T03:58:51.987Z,101288.30
2018-12-11T04:01:21.495Z,101290.50
2018-12-11T04:03:50.690Z,101287.34
2018-12-11T04:06:20.206Z,101298.14
2018-12-11T04:08:49.350Z,101297.46
2018-12-11T04:11:18.510Z,101312.80
2018-12-11T04:13:47.421Z,101309.00
2018-12-11T04:16:16.527Z,101312.39
2018-12-11T04:18:45.663Z,101308.08
2018-12-11T04:21:14.882Z,101318.77
2018-12-11T04:23:44.124Z,101324.34
2018-12-11T04:26:13.377Z,101330.00
2018-12-11T04:28:42.488Z,101336.51
2018-12-11T04:31:11.585Z,101338.56
2018-12-11T04:33:40.600Z,101348.16
2018-12-11T04:36:09.640Z,101343.88
2018-12-11T04:38:38.439Z,101341.72
2018-12-11T04:41:07.554Z,101348.33
2018-12-11T04:43:36.689Z,101344.42
2018-12-11T04:46:05.834Z,101359.67
2018-12-11T04:48:35.079Z,101361.72
2018-12-11T04:51:04.453Z,101367.95
2018-12-11T04:53:33.330Z,101372.27
2018-12-11T04:56:02.304Z,101373.16
2018-12-11T04:58:31.552Z,101381.91
2018-12-11T05:01:00.847Z,101389.34
2018-12-11T05:03:29.811Z,101380.98
2018-12-11T05:05:58.981Z,101392.22
2018-12-11T05:08:28.496Z,101403.73
2018-12-11T05:10:57.483Z,101403.39
2018-12-11T05:13:26.535Z,101404.83
2018-12-11T05:15:55.714Z,101409.19
2018-12-11T05:18:24.902Z,101416.14
2018-12-11T05:20:54.359Z,101424.06
2018-12-11T05:23:27.043Z,101426.19
2018-12-11T05:25:56.092Z,101440.61
2018-12-11T05:28:25.240Z,101437.19
2018-12-11T05:30:54.305Z,101434.58
2018-12-11T05:33:23.543Z,101435.47
2018-12-11T05:35:52.666Z,101439.04
2018-12-11T05:38:21.888Z,101444.73
2018-12-11T05:40:50.764Z,101451.34
2018-12-11T05:43:19.623Z,101458.20
2018-12-11T05:45:48.614Z,101460.02
2018-12-11T05:48:17.795Z,101463.06
2018-12-11T05:50:46.625Z,101471.33
2018-12-11T05:53:15.568Z,101478.70
2018-12-11T05:55:44.515Z,101480.07
2018-12-11T05:58:13.396Z,101484.25
2018-12-11T06:00:42.556Z,101499.09
2018-12-11T06:03:11.424Z,101492.17
2018-12-11T06:05:40.485Z,101493.95
2018-12-11T06:08:09.798Z,101507.91
2018-12-11T06:10:39.089Z,101500.20
2018-12-11T06:13:07.998Z,101500.20
2018-12-11T06:15:37.292Z,101504.48
2018-12-11T06:18:06.316Z,101509.77
2018-12-11T06:20:35.376Z,101496.08
2018-12-11T06:23:04.526Z,101518.17
2018-12-11T06:25:33.553Z,101530.81
2018-12-11T06:28:04.373Z,101529.89
2018-12-11T06:30:33.636Z,101534.25
2018-12-11T06:33:02.592Z,101534.25
2018-12-11T06:35:31.618Z,101538.74
2018-12-11T06:38:00.731Z,101537.88
2018-12-11T06:40:30.048Z,101540.49
2018-12-11T06:42:58.923Z,101544.40
2018-12-11T06:45:27.722Z,101545.59
2018-12-11T06:47:56.558Z,101549.88
2018-12-11T06:50:26.058Z,101550.80
2018-12-11T06:52:55.001Z,101556.39
2018-12-11T06:55:23.867Z,101559.85
2018-12-11T06:57:52.717Z,101563.02
2018-12-11T07:00:21.956Z,101563.84
2018-12-11T07:02:51.048Z,101571.77
2018-12-11T07:05:19.945Z,101579.20
2018-12-11T07:07:48.800Z,101577.05
2018-12-11T07:10:17.727Z,101583.97
2018-12-11T07:12:46.865Z,101585.83
2018-12-11T07:15:15.697Z,101589.29
2018-12-11T07:17:44.594Z,101596.14
2018-12-11T07:20:13.362Z,101589.58
2018-12-11T07:22:42.214Z,101594.05
2018-12-11T07:25:11.332Z,101597.40
2018-12-11T07:27:40.216Z,101606.93
2018-12-11T07:30:09.333Z,101617.32
2018-12-11T07:32:38.198Z,101611.17
2018-12-11T07:35:07.083Z,101612.55
2018-12-11T07:37:35.899Z,101616.54
2018-12-11T07:40:05.127Z,101621.78
2018-12-11T07:42:34.287Z,101624.39
2018-12-11T07:45:03.108Z,101625.32
2018-12-11T07:47:31.848Z,101621.78
2018-12-11T07:50:00.583Z,101623.57
2018-12-11T07:52:29.473Z,101630.09
2018-12-11T07:54:58.366Z,101633.06
2018-12-11T07:57:27.096Z,101638.17
2018-12-11T07:59:56.160Z,101641.70
2018-12-11T08:02:24.937Z,101640.29
2018-12-11T08:04:53.948Z,101643.01
2018-12-11T08:07:22.679Z,101651.76
2018-12-11T08:09:51.523Z,101653.99
2018-12-11T08:12:20.846Z,101655.97
2018-12-11T08:14:49.960Z,101672.61
2018-12-11T08:17:18.912Z,101675.18
2018-12-11T08:19:47.677Z,101672.58
2018-12-11T08:22:16.466Z,101676.52
2018-12-11T08:24:45.274Z,101680.80
2018-12-11T08:27:14.058Z,101678.19
2018-12-11T08:29:42.834Z,101691.97
2018-12-11T08:32:11.662Z,101695.39
2018-12-11T08:34:40.715Z,101703.69
2018-12-11T08:37:09.567Z,101705.00
2018-12-11T08:39:38.407Z,101717.25
2018-12-11T08:42:07.141Z,101723.39
2018-12-11T08:44:36.119Z,101725.59
2018-12-11T08:47:05.380Z,101727.09
2018-12-11T08:49:34.208Z,101731.56
2018-12-11T08:52:03.697Z,101730.34
2018-12-11T08:54:32.406Z,101738.19
2018-12-11T08:57:01.164Z,101742.47
2018-12-11T08:59:29.995Z,101750.41
2018-12-11T09:01:58.750Z,101748.36
2018-12-11T09:04:27.595Z,101755.30
2018-12-11T09:06:56.408Z,101760.35
2018-12-11T09:09:25.210Z,101766.25
2018-12-11T09:11:54.076Z,101765.80
2018-12-11T09:14:22.814Z,101771.16
2018-12-11T09:16:51.883Z,101771.58
2018-12-11T09:19:20.804Z,101775.38
2018-12-11T09:21:49.681Z,101784.16
2018-12-11T09:24:18.842Z,101787.59
2018-12-11T09:26:47.593Z,101796.34
2018-12-11T09:29:16.366Z,101791.62
2018-12-11T09:31:45.159Z,101798.14
2018-12-11T09:34:13.898Z,101802.05
2018-12-11T09:36:49.082Z,101808.76
2018-12-11T09:39:18.173Z,101811.62
2018-12-11T09:41:46.995Z,101798.58
2018-12-11T09:44:15.829Z,101802.49
2018-12-11T09:46:44.753Z,101803.21
2018-12-11T09:49:13.738Z,101810.55
2018-12-11T09:51:42.531Z,101807.69
2018-12-11T09:54:11.277Z,101784.83
2018-12-11T09:56:40.340Z,101810.43
2018-12-11T09:59:09.165Z,101821.80
2018-12-11T10:01:38.080Z,101831.30
2018-12-11T10:04:06.885Z,101832.48
2018-12-11T10:06:35.653Z,101835.58
2018-12-11T10:09:06.023Z,101838.34
2018-12-11T10:11:34.808Z,101840.28
2018-12-11T10:14:05.116Z,101848.92
2018-12-11T10:16:33.923Z,101848.15
2018-12-11T10:19:03.722Z,101844.06
2018-12-11T10:21:32.538Z,101847.72
2018-12-11T10:24:01.329Z,101851.14
2018-12-11T10:26:30.107Z,101845.45
2018-12-11T10:28:58.991Z,101849.73
2018-12-11T10:31:27.996Z,101847.00
2018-12-11T10:33:56.857Z,101856.09
2018-12-11T10:36:25.574Z,101851.44
2018-12-11T10:38:54.356Z,101857.37
2018-12-11T10:41:23.454Z,101865.09
2018-12-11T10:43:52.176Z,101861.21
2018-12-11T10:46:21.227Z,101866.55
2018-12-11T10:48:50.418Z,101870.22
2018-12-11T10:51:19.468Z,101876.41
2018-12-11T10:53:48.336Z,101875.19
2018-12-11T10:56:17.112Z,101859.09
2018-12-11T10:58:45.959Z,101867.96
2018-12-11T11:01:22.167Z,101877.09
2018-12-11T11:03:51.361Z,101873.38
2018-12-11T11:06:20.281Z,101877.62
2018-12-11T11:08:49.238Z,101877.55
2018-12-11T11:11:18.272Z,101890.59
2018-12-11T11:13:47.085Z,101892.38
2018-12-11T11:16:15.806Z,101892.38
2018-12-11T11:18:45.510Z,101892.42
2018-12-11T11:21:14.751Z,101894.20
2018-12-11T11:23:43.691Z,101905.99
2018-12-11T11:26:12.686Z,101901.37
2018-12-11T11:28:41.486Z,101896.31
2018-12-11T11:31:10.407Z,101899.04
2018-12-11T11:33:39.522Z,101909.00
2018-12-11T11:36:08.343Z,101905.08
2018-12-11T11:38:37.501Z,101909.00
2018-12-11T11:41:06.292Z,101909.93
2018-12-11T11:43:35.193Z,101912.34
2018-12-11T11:46:04.076Z,101928.83
2018-12-11T11:48:32.914Z,101916.59
2018-12-11T11:51:01.785Z,101930.50
2018-12-11T11:53:30.613Z,101936.13
2018-12-11T11:55:59.660Z,101940.09
2018-12-11T11:58:28.471Z,101936.77
2018-12-11T12:00:57.348Z,101946.98
2018-12-11T12:03:26.106Z,101943.44
2018-12-11T12:05:54.910Z,101937.84
2018-12-11T12:08:23.712Z,101954.40
2018-12-11T12:10:52.484Z,101957.22
2018-12-11T12:13:21.887Z,101970.15
2018-12-11T12:15:50.642Z,101969.91
2018-12-11T12:18:19.524Z,101982.09
2018-12-11T12:20:48.499Z,101976.39
2018-12-11T12:23:17.544Z,101988.30
2018-12-11T12:25:46.445Z,101980.35
2018-12-11T12:28:15.224Z,102002.28
2018-12-11T12:30:44.814Z,101996.13
2018-12-11T12:33:13.807Z,101994.38
2018-12-11T12:35:42.551Z,102005.14
2018-12-11T12:38:11.276Z,102014.19
2018-12-11T12:40:39.980Z,102012.03
2018-12-11T12:43:08.889Z,102016.06
2018-12-11T12:45:37.811Z,102021.94
2018-12-11T12:48:07.013Z,102038.48
2018-12-11T12:50:35.907Z,102037.78
2018-12-11T12:53:04.845Z,102044.59
2018-12-11T12:55:33.795Z,102039.21
2018-12-11T12:58:02.531Z,102041.45
2018-12-11T13:00:31.568Z,102037.55
2018-12-11T13:03:00.412Z,102044.06
2018-12-11T13:05:29.410Z,102047.81
2018-12-11T13:07:58.280Z,102048.67
2018-12-11T13:10:27.038Z,102051.88
2018-12-11T13:12:55.992Z,102063.26
2018-12-11T13:15:24.809Z,102060.80
2018-12-11T13:17:53.747Z,102069.63
2018-12-11T13:20:23.163Z,102072.75
2018-12-11T13:22:52.287Z,102077.91
2018-12-11T13:25:21.633Z,102088.52
2018-12-11T13:27:50.758Z,102097.92
2018-12-11T13:30:19.559Z,102089.88
2018-12-11T13:32:48.396Z,102093.70
2018-12-11T13:35:17.225Z,102096.31
2018-12-11T13:37:45.969Z,102101.43
2018-12-11T13:40:15.212Z,102097.16
2018-12-11T13:42:44.113Z,102106.16
2018-12-11T13:45:13.028Z,102107.33
2018-12-11T13:47:41.883Z,102115.73
2018-12-11T13:50:10.823Z,102114.87
2018-12-11T13:52:39.618Z,102110.14
2018-12-11T13:55:08.416Z,102122.23
2018-12-11T13:57:37.257Z,102112.13
2018-12-11T14:00:07.270Z,102117.47
2018-12-11T14:02:36.059Z,102115.44
2018-12-11T14:05:05.221Z,102112.97
2018-12-11T14:07:34.158Z,102119.84
2018-12-11T14:10:03.062Z,102129.40
2018-12-11T14:12:32.087Z,102125.49
2018-12-11T14:15:00.888Z,102128.09
2018-12-11T14:17:29.661Z,102140.91
2018-12-11T14:19:58.636Z,102134.12
2018-12-11T14:22:27.549Z,102131.87
2018-12-11T14:24:56.352Z,102133.03
2018-12-11T14:27:25.203Z,102139.90
2018-12-11T14:29:54.151Z,102139.55
2018-12-11T14:32:22.930Z,102144.02
2018-12-11T14:34:51.872Z,102139.83
2018-12-11T14:37:21.401Z,102147.44
2018-12-11T14:39:50.305Z,102146.55
2018-12-11T14:42:19.139Z,102161.16
2018-12-11T14:44:47.900Z,102163.08
2018-12-11T14:47:16.862Z,102171.44
2018-12-11T14:49:45.709Z,102171.23
2018-12-11T14:52:14.558Z,102169.93
2018-12-11T14:54:43.442Z,102178.59
2018-12-11T14:57:12.364Z,102180.49
2018-12-11T14:59:41.294Z,102182.81
2018-12-11T15:02:10.378Z,102190.52
2018-12-11T15:04:39.276Z,102193.38
2018-12-11T15:07:08.192Z,102196.53
2018-12-11T15:12:29.977Z,102200.80
2018-12-11T15:14:58.731Z,102199.84
2018-12-11T15:17:27.959Z,102203.20
2018-12-11T15:19:56.748Z,102203.00
2018-12-11T15:22:25.616Z,102216.97
2018-12-11T15:24:54.528Z,102208.81
2018-12-11T15:27:23.966Z,102217.78
2018-12-11T15:29:52.861Z,102222.84
2018-12-11T15:32:22.876Z,102225.45
2018-12-11T15:35:54.851Z,102231.95
2018-12-11T15:38:23.787Z,102239.02
2018-12-11T15:40:52.565Z,102244.08
2018-12-11T15:43:21.674Z,102240.05
2018-12-11T15:45:50.576Z,102246.62
2018-12-11T15:48:19.384Z,102250.17
2018-12-11T15:50:48.802Z,102253.68
2018-12-11T15:53:17.690Z,102248.97
2018-12-11T15:55:46.595Z,102252.98
2018-12-11T15:58:15.456Z,102252.98
2018-12-11T16:00:44.365Z,102263.60
2018-12-11T16:03:13.251Z,102263.55
2018-12-11T16:05:42.117Z,102268.34
2018-12-11T16:08:11.364Z,102274.36
2018-12-11T16:10:40.179Z,102279.72
2018-12-11T16:13:09.525Z,102281.83
2018-12-11T16:15:38.812Z,102278.46
2018-12-11T16:18:07.860Z,102286.62
2018-12-11T16:20:36.991Z,102286.12
2018-12-11T16:23:06.985Z,102283.61
2018-12-11T16:25:35.897Z,102283.82
2018-12-11T16:28:04.849Z,102290.94
2018-12-11T16:30:33.821Z,102290.33
2018-12-11T16:33:04.224Z,102284.93
2018-12-11T16:35:33.607Z,102281.02
2018-12-11T16:38:03.799Z,102286.42
2018-12-11T16:40:32.886Z,102289.28
2018-12-11T16:43:01.915Z,102295.04
2018-12-11T16:45:31.060Z,102297.53
2018-12-11T16:48:00.479Z,102304.99
2018-12-11T16:50:29.682Z,102306.64
2018-12-11T16:52:59.064Z,102295.23
2018-12-11T16:55:28.310Z,102302.08
2018-12-11T16:57:57.671Z,102310.05
2018-12-11T17:00:27.116Z,102302.73
2018-12-11T17:02:56.216Z,102308.44
2018-12-11T17:05:25.396Z,102312.16
2018-12-11T17:07:54.550Z,102311.04
2018-12-11T17:10:24.785Z,102314.08
2018-12-11T17:12:54.559Z,102322.51
2018-12-11T17:15:26.343Z,102313.52
2018-12-11T17:17:55.496Z,102323.78
2018-12-11T17:20:25.410Z,102326.38
2018-12-11T17:22:54.373Z,102337.14
2018-12-11T17:25:23.736Z,102347.20
2018-12-11T17:27:52.988Z,102341.20
2018-12-11T17:30:22.264Z,102343.30
2018-12-11T17:32:51.515Z,102349.38
2018-12-11T17:35:21.400Z,102351.14
2018-12-11T17:37:50.962Z,102355.37
2018-12-11T17:40:20.324Z,102353.18
2018-12-11T17:42:49.301Z,102353.92
2018-12-11T17:45:18.381Z,102360.52
2018-12-11T17:47:47.476Z,102366.11
2018-12-11T17:50:17.666Z,102366.89
2018-12-11T17:52:51.273Z,102369.03
2018-12-11T17:55:23.086Z,102375.94
2018-12-11T17:57:53.115Z,102374.05
2018-12-11T18:00:23.091Z,102379.98
2018-12-11T18:02:53.519Z,102380.24
2018-12-11T18:05:25.291Z,102381.78
2018-12-11T18:07:54.975Z,102389.84
2018-12-11T18:10:24.452Z,102384.34
2018-12-11T18:12:54.306Z,102384.51
2018-12-11T18:15:25.249Z,102393.74
2018-12-11T18:17:57.619Z,102393.74
2018-12-11T18:20:26.730Z,102395.54
2018-12-11T18:22:55.894Z,102397.00
2018-12-11T18:25:25.178Z,102402.27
2018-12-11T18:27:54.626Z,102409.18
2018-12-11T18:30:23.569Z,102406.11
2018-12-11T18:32:53.131Z,102417.66
2018-12-11T18:35:22.667Z,102419.48
2018-12-11T18:37:52.107Z,102424.75
2018-12-11T18:40:21.440Z,102433.46
2018-12-11T18:42:50.795Z,102428.93
2018-12-11T18:45:19.885Z,102438.67
2018-12-11T18:47:50.063Z,102437.38
2018-12-11T18:50:21.545Z,102434.70
2018-12-11T18:52:50.523Z,102439.02
2018-12-11T18:55:19.933Z,102437.20
2018-12-11T18:57:49.249Z,102441.78
2018-12-11T19:00:18.546Z,102441.60
2018-12-11T19:02:47.710Z,102435.89
2018-12-11T19:05:16.887Z,102442.05
2018-12-11T19:07:45.904Z,102443.52
2018-12-11T19:10:15.007Z,102441.08
2018-12-11T19:12:44.413Z,102448.70
2018-12-11T19:15:13.598Z,102450.31
2018-12-11T19:17:42.687Z,102437.80
2018-12-11T19:20:11.776Z,102442.84
2018-12-11T19:22:41.077Z,102445.45
2018-12-11T19:25:14.620Z,102452.17
2018-12-11T19:27:43.870Z,102448.03
2018-12-11T19:30:13.156Z,102460.24
2018-12-11T19:32:42.353Z,102462.67
2018-12-11T19:35:11.726Z,102464.44
2018-12-11T19:37:40.853Z,102462.84
2018-12-11T19:40:10.633Z,102462.84
2018-12-11T19:42:40.628Z,102458.45
2018-12-11T19:45:10.057Z,102458.78
2018-12-11T19:47:39.330Z,102465.75
2018-12-11T19:50:08.667Z,102466.66
2018-12-11T19:52:39.950Z,102467.56
2018-12-11T19:55:09.766Z,102472.61
2018-12-11T19:57:39.182Z,102468.53
2018-12-11T20:00:09.152Z,102469.84
2018-12-11T20:02:38.428Z,102469.03
2018-12-11T20:05:08.139Z,102480.58
2018-12-11T20:07:37.500Z,102483.52
2018-12-11T20:10:16.507Z,102479.77
2018-12-11T20:12:46.291Z,102486.75
2018-12-11T20:15:15.715Z,102492.05
2018-12-11T20:17:44.890Z,102494.95
2018-12-11T20:20:30.912Z,102491.48
2018-12-11T20:23:00.324Z,102505.47
2018-12-11T20:25:30.106Z,102496.52
2018-12-11T20:27:59.509Z,102498.13
2018-12-11T20:30:28.948Z,102492.92
2018-12-11T20:32:58.315Z,102497.32
2018-12-11T20:35:27.721Z,102502.59
2018-12-11T20:37:57.072Z,102503.49
2018-12-11T20:40:26.494Z,102506.77
2018-12-11T20:42:55.900Z,102520.75
2018-12-11T20:45:25.205Z,102514.87
2018-12-11T20:47:54.413Z,102522.69
2018-12-11T20:50:24.697Z,102534.58
2018-12-11T20:52:54.021Z,102532.97
2018-12-11T20:55:24.450Z,102541.59
2018-12-11T20:57:53.661Z,102548.59
2018-12-11T21:00:23.216Z,102550.07
2018-12-11T21:02:52.601Z,102546.33
2018-12-11T21:05:22.220Z,102558.35
2018-12-11T21:07:51.511Z,102554.14
2018-12-11T21:10:21.124Z,102555.11
2018-12-11T21:12:50.355Z,102546.97
2018-12-11T21:15:19.902Z,102558.35
2018-12-11T21:17:49.250Z,102559.48
2018-12-11T21:20:18.573Z,102563.49
2018-12-11T21:22:47.841Z,102564.86
2018-12-11T21:25:17.308Z,102458.72
2018-12-11T21:27:46.775Z,102575.31
2018-12-11T21:30:15.978Z,102578.21
2018-12-11T21:32:45.088Z,102583.08
2018-12-11T21:35:14.374Z,102590.56
2018-12-11T21:37:43.702Z,102591.86
2018-12-11T21:40:13.192Z,102601.81
2018-12-11T21:42:42.740Z,102339.31
2018-12-11T21:45:11.981Z,102604.41
2018-12-11T21:47:41.334Z,102605.38
2018-12-11T21:50:10.563Z,102610.42
2018-12-11T21:52:39.741Z,102609.45
2018-12-11T21:55:09.197Z,102611.89
2018-12-11T21:57:38.426Z,102606.52
2018-12-11T22:00:10.478Z,102603.28
2018-12-11T22:02:39.824Z,102603.28
2018-12-11T22:05:09.091Z,102603.11
2018-12-11T22:07:38.333Z,102602.28
2018-12-11T22:10:07.867Z,102605.45
2018-12-11T22:12:37.441Z,102609.85
2018-12-11T22:15:06.852Z,102608.32
2018-12-11T22:17:35.935Z,102612.56
2018-12-11T22:20:06.538Z,102625.41
2018-12-11T22:22:35.838Z,102624.44
2018-12-11T22:25:05.579Z,102628.01
2018-12-11T22:27:34.901Z,102633.39
2018-12-11T22:30:05.429Z,102633.69
2018-12-11T22:32:34.743Z,102630.68
2018-12-11T22:35:03.949Z,102631.75
2018-12-11T22:37:32.978Z,102633.84
2018-12-11T22:40:02.181Z,102634.68
2018-12-11T22:42:31.505Z,102644.77
2018-12-11T22:45:00.845Z,102640.20
2018-12-11T22:47:30.268Z,102656.16
2018-12-11T22:49:59.699Z,102652.58
2018-12-11T22:52:29.254Z,102652.42
2018-12-11T22:54:58.535Z,102654.35
2018-12-11T22:57:27.745Z,102634.34
2018-12-11T22:59:56.748Z,102661.20
2018-12-11T23:02:26.149Z,102658.59
2018-12-11T23:04:55.383Z,102651.19
2018-12-11T23:07:24.753Z,102661.70
2018-12-11T23:09:53.884Z,102669.34
2018-12-11T23:12:23.127Z,102666.23
2018-12-11T23:14:52.422Z,102635.98
2018-12-11T23:17:22.643Z,102665.11
2018-12-11T23:19:52.068Z,102670.55
2018-12-11T23:22:21.443Z,102668.68
2018-12-11T23:24:51.067Z,102666.23
2018-12-11T23:27:20.767Z,102671.78
2018-12-11T23:29:49.914Z,102667.47
2018-12-11T23:32:19.207Z,102671.28
2018-12-11T23:34:48.910Z,102664.14
2018-12-11T23:37:18.260Z,102673.02
2018-12-11T23:39:47.504Z,102663.17
2018-12-11T23:42:16.724Z,102667.88
2018-12-11T23:44:46.498Z,102657.77
2018-12-11T23:47:15.801Z,102663.63
2018-12-11T23:49:44.945Z,102661.03
2018-12-11T23:52:14.331Z,102668.20
2018-12-11T23:54:43.558Z,102674.21
2018-12-11T23:57:13.412Z,102668.52
2018-12-11T23:59:42.664Z,102674.86
